createdAt,value
2022-08-03T00:00:24.721Z,15
2022-08-03T00:15:24.741Z,18
2022-08-03T00:30:26.878Z,12
2022-08-03T00:45:24.459Z,12
2022-08-03T01:00:24.524Z,12
2022-08-03T01:15:25.056Z,14
2022-08-03T01:30:24.616Z,12
2022-08-03T01:45:24.359Z,11
2022-08-03T02:00:23.837Z,12
2022-08-03T02:15:24.380Z,14
2022-08-03T08:00:23.937Z,9
2022-08-03T08:15:24.086Z,9
2022-08-03T08:30:24.570Z,6
2022-08-03T08:45:24.148Z,8
2022-08-03T09:00:23.735Z,6
2022-08-03T09:15:24.520Z,6
2022-08-03T09:30:34.018Z,6
2022-08-03T10:00:23.662Z,5
2022-08-03T10:30:05.369Z,2
2022-08-03T10:30:06.342Z,2
2022-08-03T10:30:26.651Z,5
2022-08-03T11:00:24.637Z,5
2022-08-03T11:15:23.218Z,2
2022-08-03T11:15:23.258Z,1
2022-08-03T11:30:25.878Z,4
2022-08-03T11:45:24.696Z,4
2022-08-03T12:00:24.021Z,6
2022-08-03T12:15:24.334Z,5
2022-08-03T12:30:24.520Z,6
2022-08-03T12:45:24.518Z,7
2022-08-03T13:00:29.283Z,7
2022-08-03T13:15:24.389Z,8
2022-08-03T13:30:27.470Z,8
2022-08-03T13:45:24.387Z,8
2022-08-03T14:00:26.892Z,8
2022-08-03T14:15:24.023Z,7
2022-08-03T14:30:24.379Z,7
2022-08-03T14:45:23.892Z,8
2022-08-03T15:00:24.496Z,8
2022-08-03T15:15:24.633Z,8
2022-08-03T15:30:24.415Z,7
2022-08-03T15:45:24.344Z,7
2022-08-03T16:00:33.193Z,8
2022-08-03T16:15:24.413Z,8
2022-08-03T16:30:24.010Z,8
2022-08-03T16:45:24.167Z,8
2022-08-03T17:00:33.427Z,8
2022-08-03T17:15:37.917Z,8
2022-08-03T17:30:25.254Z,8
2022-08-03T17:45:24.689Z,8
2022-08-03T18:00:23.721Z,8
2022-08-03T18:15:23.824Z,9
2022-08-03T18:30:27.516Z,8
2022-08-03T18:45:55.470Z,8
2022-08-03T19:00:23.829Z,8
2022-08-03T19:15:36.255Z,8
2022-08-03T19:30:26.306Z,9
2022-08-03T19:45:23.948Z,8
2022-08-03T20:00:26.322Z,8
2022-08-03T20:15:31.431Z,8
2022-08-03T20:30:26.366Z,9
2022-08-03T20:45:58.647Z,9
2022-08-03T21:00:24.124Z,10
2022-08-03T21:16:01.263Z,10
2022-08-03T21:30:24.846Z,14
2022-08-03T21:45:24.501Z,13
2022-08-03T22:00:24.137Z,11
2022-08-03T22:15:24.342Z,11
2022-08-03T22:30:23.951Z,9
2022-08-03T22:45:45.404Z,9
2022-08-03T23:00:24.349Z,9
2022-08-03T23:15:24.598Z,11
2022-08-03T23:30:31.226Z,10
2022-08-03T23:45:23.653Z,11
